Arundel, Maine
Current Conditions -  °F | °C
As of 6:55 PM on Friday 24 Oct 2014 (Local Time) from KSFM Reporting Station
Overcast Overcast  
Wind Chill: 50°   Ceiling: 2800
Heat Index: 50°   Visibility: 10mi
Dew Point: 43°   Wind: 5mph
Humidity: 76%   Direction: 270°W
Pressure: 29.71"   Gusts: NA
Location:  43.4079°N, 70.4735°W
Report Text: KSFM 242255Z AUTO 27004KT 10SM OVC028 10/06 A2971 RMK AO1
Loading
Personal Weather Stations






























Interactive Weather Map
Tropical Storm Tracking
New forecast layout! Learn more

10-Day Weather Forecast

Advertisements
Track Severe Weather on mobile